Main page
METAR-TAF:

METAR-TAF

Airports :

Trieste, Italy

latitude: 45-39N, longitude: 013-45E, elevation: 8 m

Current weather observation

The report was made 7 hours and 56 minutes ago, at 17:55 UTC
Wind 15 kt from the Northeast with gusts up to 27 kt
Temperature 4°C
Humidity 56%
Pressure 1014 hPa
Visibility 10 km or more
no clouds below 1500 m and no cumulonimbus

METAR: LIVT 191755Z 04015G27KT CAVOK 04/M04 Q1014 RMK SCT SCT070 QUK / QUL / VIS MAR 20 KM VIS MIN 9999

Time: 02:51 (01:51 UTC)


TAF: missing

Weather observations and forecasts of more than 4000 airports (METAR and TAF reports).

The available stations are represented by yellow and red dots on the map.

Hover mouse over dot to see the name of the station.

Then click to see weather observations and forecasts.

To change the map : click on the green buttons with a black cross to zoom in, on the green button with a dash to zoom out, or on the green arrows for adjacent maps.


METAR-TAF: